Air Navigation Services of Czech Republic
Airport: LKNA Updated:  25.03.2019 22:00:07  UTC
 METAR LKNA 25.03. 22:00 ...
METAR LKNA 252200Z 31016KT 9999 FEW014 02/M00 Q1017 RMK BLU=
 TAF LKNA 25.03. 17:00 ...
TAF LKNA 251700Z 2518/2618 32012KT 9999 BKN030      TEMPO 2518/2522 32016G26KT 8000 SHRA BKN020      TEMPO 2609/2618 32016G34KT      PROB30 TEMPO 2613/2618 7000 SHRA BKN015=